Barre Y Va 3 — FAD9023 — position and weather

sailwx.info

Track history (hours):
 
Tides and Currents Weather Stations Pressure Air Temp Water Temp Dewpoint Dewpoint Depression Visibility Wind Speed Wind Dir Waves Ship Positions

Barre Y Va 3

Last reported at 2018-Jan-09 15:06 UTC. Time now 2018-Jan-24 05:47 UTC.
Position N 49°29' E 000°27'.
Warning: this ship's position is 14 days out of date.

Length 10 m.

Type: Sailing vessel. MMSI: 227442420.

Date/timePositionNaut miles runAvg speedWind from/ knotsBaromVisibWave heightAir tempDewpointWater temp
2018-Jan-09 15:06N 49°29' E 000°27'0 0.0
2018-Jan-09 15:00N 49°29' E 000°27'0 0.5
2018-Jan-09 14:24N 49°28' E 000°27'0 0.5
2018-Jan-09 14:00N 49°28' E 000°27'2 4.4
2018-Jan-09 13:30N 49°27' E 000°24'4 7.4
2018-Jan-09 13:00N 49°26' E 000°19'3 6.4
2018-Jan-09 12:30N 49°26' E 000°14'3 5.8
2018-Jan-09 12:00N 49°26' E 000°10'2 5.0
2018-Jan-09 11:30N 49°26' E 000°06'2 4.0
2018-Jan-09 11:00N 49°27' E 000°03'2 3.9
2018-Jan-09 10:30N 49°28' E 000°01'2 4.6
2018-Jan-09 10:00N 49°30' E 000°03'2 3.8
2018-Jan-09 09:30N 49°29' E 000°06'  
Track history (hours):
 
Tides and Currents Weather Stations Pressure Air Temp Water Temp Dewpoint Dewpoint Depression Visibility Wind Speed Wind Dir Waves Ship Positions

Barre Y Va 3

Last reported at 2018-Jan-09 15:06 UTC. Time now 2018-Jan-24 05:47 UTC.
Position N 49°29' E 000°27'.
Warning: this ship's position is 14 days out of date.

Length 10 m.

Type: Sailing vessel. MMSI: 227442420.

Date/timePositionNaut miles runAvg speedWind from/ knotsBaromVisibWave heightAir tempDewpointWater temp
2018-Jan-09 15:06N 49°29' E 000°27'0 0.0
2018-Jan-09 15:00N 49°29' E 000°27'0 0.5
2018-Jan-09 14:24N 49°28' E 000°27'0 0.5
2018-Jan-09 14:00N 49°28' E 000°27'2 4.4
2018-Jan-09 13:30N 49°27' E 000°24'4 7.4
2018-Jan-09 13:00N 49°26' E 000°19'3 6.4
2018-Jan-09 12:30N 49°26' E 000°14'3 5.8
2018-Jan-09 12:00N 49°26' E 000°10'2 5.0
2018-Jan-09 11:30N 49°26' E 000°06'2 4.0
2018-Jan-09 11:00N 49°27' E 000°03'2 3.9
2018-Jan-09 10:30N 49°28' E 000°01'2 4.6
2018-Jan-09 10:00N 49°30' E 000°03'2 3.8
2018-Jan-09 09:30N 49°29' E 000°06'  

Dump ship's entire track history